Time;durP1;ratioP1;P1;durP2;ratioP2;P2;SDS_P1;SDS_P2;PMS_P1;PMS_P2;Temp;Humidity;BMP_temperature;BMP_pressure;BME280_temperature;BME280_humidity;BME280_pressure;Samples;Min_cycle;Max_cycle;Signal;HPM_P1;HPM_P2
2020/12/11 00:02:22;;;;;;;58.57;23.33;;;3.20;99.90;;;;;;10286982;28;20224;-83
2020/12/11 00:07:45;;;;;;;51.10;24.03;;;3.30;99.90;;;;;;10295012;28;20196;-82
2020/12/11 00:13:07;;;;;;;56.63;23.67;;;3.20;99.90;;;;;;10295605;28;20694;-81
2020/12/11 00:18:28;;;;;;;57.30;23.23;;;3.20;99.90;;;;;;10312138;28;20226;-82
2020/12/11 00:23:51;;;;;;;52.83;23.57;;;3.10;99.90;;;;;;10297397;28;20226;-81
2020/12/11 00:29:13;;;;;;;53.47;22.77;;;3.10;99.90;;;;;;10294390;28;20201;-80
2020/12/11 00:34:36;;;;;;;58.47;24.20;;;3.10;99.90;;;;;;10254422;29;20226;-83
2020/12/11 00:39:58;;;;;;;58.43;24.30;;;3.30;99.90;;;;;;10254410;28;20247;-82
2020/12/11 00:45:20;;;;;;;54.63;23.43;;;3.40;99.90;;;;;;10254140;29;20197;-80
2020/12/11 00:50:42;;;;;;;55.30;22.27;;;3.20;99.90;;;;;;10275715;28;20218;-82
2020/12/11 00:56:05;;;;;;;52.07;23.13;;;3.10;99.90;;;;;;10292767;28;20202;-81
2020/12/11 01:01:27;;;;;;;53.80;21.53;;;3.20;99.90;;;;;;10292998;28;20229;-81
2020/12/11 01:06:49;;;;;;;67.77;23.33;;;3.20;99.90;;;;;;10290596;28;20199;-81
2020/12/11 01:12:11;;;;;;;59.03;22.10;;;3.00;99.90;;;;;;10291592;28;20217;-84
2020/12/11 01:17:33;;;;;;;57.00;22.90;;;3.10;99.90;;;;;;10302219;28;20215;-81
2020/12/11 01:22:55;;;;;;;49.17;22.27;;;3.20;99.90;;;;;;10335083;28;20226;-82
2020/12/11 01:28:17;;;;;;;54.27;21.60;;;3.20;99.90;;;;;;10341152;28;20556;-83
2020/12/11 01:33:39;;;;;;;46.77;21.07;;;3.20;99.90;;;;;;10303077;28;20244;-82
2020/12/11 01:39:01;;;;;;;55.17;22.50;;;3.00;99.90;;;;;;10297780;28;20216;-81
2020/12/11 01:44:23;;;;;;;49.20;20.27;;;3.00;99.90;;;;;;10296900;28;20205;-82
2020/12/11 01:49:46;;;;;;;52.67;22.50;;;3.00;99.90;;;;;;10291575;28;20230;-80
2020/12/11 01:55:07;;;;;;;50.37;20.93;;;3.00;99.90;;;;;;10251561;29;20275;-82
2020/12/11 02:00:30;;;;;;;50.97;22.47;;;3.10;99.90;;;;;;10287820;28;20228;-81
2020/12/11 02:05:52;;;;;;;47.77;21.27;;;3.10;99.90;;;;;;10298801;28;20191;-82
2020/12/11 02:11:18;;;;;;;53.53;21.07;;;3.10;99.90;;;;;;10298102;28;20714;-82
2020/12/11 02:16:40;;;;;;;52.70;21.33;;;3.10;99.90;;;;;;10300835;28;20212;-82
2020/12/11 02:22:05;;;;;;;54.83;22.00;;;3.30;99.90;;;;;;10340410;28;20219;-82
2020/12/11 02:27:27;;;;;;;48.37;21.23;;;3.30;99.90;;;;;;10338432;28;20206;-82
2020/12/11 02:32:49;;;;;;;49.23;20.87;;;3.30;99.90;;;;;;10312660;28;20227;-81
2020/12/11 02:38:11;;;;;;;46.40;20.20;;;3.30;99.90;;;;;;10294242;28;20223;-84
2020/12/11 02:43:37;;;;;;;44.23;20.13;;;3.20;99.90;;;;;;10259638;28;20244;-82
2020/12/11 02:48:58;;;;;;;40.53;19.90;;;3.10;99.90;;;;;;10259227;28;20304;-83
2020/12/11 02:54:21;;;;;;;41.67;19.97;;;3.10;99.90;;;;;;10261129;28;20203;-82
2020/12/11 02:59:43;;;;;;;40.03;18.70;;;3.10;99.90;;;;;;10258228;29;20267;-81
2020/12/11 03:05:04;;;;;;;40.37;19.63;;;3.00;99.90;;;;;;10294131;28;20198;-81
2020/12/11 03:10:27;;;;;;;39.00;18.07;;;3.10;99.90;;;;;;10297512;28;20704;-81
2020/12/11 03:15:49;;;;;;;41.83;18.83;;;3.10;99.90;;;;;;10306137;28;20202;-81
2020/12/11 03:21:11;;;;;;;35.40;18.17;;;3.20;99.90;;;;;;10358308;28;20280;-80
2020/12/11 03:26:33;;;;;;;38.40;19.50;;;3.10;99.90;;;;;;10352091;28;20612;-82
2020/12/11 03:31:55;;;;;;;37.03;18.40;;;3.10;99.90;;;;;;10318307;28;20230;-82
2020/12/11 03:37:17;;;;;;;36.30;18.20;;;3.10;99.90;;;;;;10296202;28;20317;-82
2020/12/11 03:42:39;;;;;;;37.90;19.27;;;3.20;99.90;;;;;;10295452;28;20217;-82
2020/12/11 03:48:01;;;;;;;39.70;19.33;;;3.30;99.90;;;;;;10276394;28;20221;-81
2020/12/11 03:53:23;;;;;;;33.63;17.00;;;3.30;99.90;;;;;;10282325;28;20211;-82
2020/12/11 03:58:46;;;;;;;34.20;17.47;;;3.20;99.90;;;;;;10287253;28;20597;-81
2020/12/11 04:04:08;;;;;;;35.93;18.90;;;3.10;99.90;;;;;;10295174;28;20223;-81
2020/12/11 04:09:30;;;;;;;39.23;17.73;;;3.00;99.90;;;;;;10295518;28;20194;-82
2020/12/11 04:14:53;;;;;;;37.03;17.93;;;3.10;99.90;;;;;;10292531;28;20196;-81
2020/12/11 04:20:14;;;;;;;37.23;17.80;;;3.10;99.90;;;;;;10316798;28;20237;-82
2020/12/11 04:25:36;;;;;;;34.70;17.47;;;2.90;99.90;;;;;;10334405;28;20196;-81
2020/12/11 04:30:59;;;;;;;36.20;18.03;;;3.00;99.90;;;;;;10323811;28;20219;-83
2020/12/11 04:36:20;;;;;;;43.83;19.83;;;3.20;99.90;;;;;;10293127;28;20205;-83
2020/12/11 04:41:45;;;;;;;41.00;19.60;;;3.30;99.90;;;;;;10294903;28;20700;-83
2020/12/11 04:47:07;;;;;;;40.47;19.63;;;3.20;99.90;;;;;;10293636;28;20252;-83
2020/12/11 04:52:34;;;;;;;41.63;20.03;;;3.20;99.90;;;;;;10292302;28;20222;-83
2020/12/11 04:57:56;;;;;;;42.97;20.63;;;3.30;99.90;;;;;;10292702;28;20225;-82
2020/12/11 05:03:18;;;;;;;40.20;19.90;;;3.20;99.90;;;;;;10294100;28;20211;-82
2020/12/11 05:08:40;;;;;;;42.33;20.10;;;3.10;99.90;;;;;;10301123;28;20411;-82
2020/12/11 05:14:02;;;;;;;46.20;20.60;;;3.10;99.90;;;;;;10297958;28;20228;-83
2020/12/11 05:19:24;;;;;;;48.53;21.87;;;3.20;99.90;;;;;;10276399;28;20222;-82
2020/12/11 05:24:47;;;;;;;58.10;23.17;;;3.20;99.90;;;;;;10292881;28;20206;-82
2020/12/11 05:30:25;;;;;;;53.73;22.17;;;3.10;99.90;;;;;;10291124;28;20213;-82
2020/12/11 05:35:47;;;;;;;56.97;23.87;;;3.10;99.90;;;;;;10292358;28;20203;-82
2020/12/11 05:41:09;;;;;;;53.97;23.73;;;3.20;99.90;;;;;;10292063;28;20237;-81
2020/12/11 05:46:31;;;;;;;56.03;23.27;;;3.10;99.90;;;;;;10291250;28;20194;-85
2020/12/11 05:51:59;;;;;;;55.50;23.47;;;3.10;99.90;;;;;;10291444;28;20271;-81
2020/12/11 05:57:22;;;;;;;58.87;23.87;;;3.10;99.90;;;;;;10292143;28;20670;-81
2020/12/11 06:02:46;;;;;;;57.07;23.63;;;3.20;99.90;;;;;;10292214;28;20692;-74
2020/12/11 06:08:10;;;;;;;58.37;24.73;;;3.10;99.90;;;;;;10285652;28;20240;-76
2020/12/11 06:13:38;;;;;;;59.73;24.07;;;3.10;99.90;;;;;;10284784;28;20704;-75
2020/12/11 06:19:02;;;;;;;59.93;24.00;;;3.10;99.90;;;;;;10280685;28;20650;-75
2020/12/11 06:24:29;;;;;;;68.23;25.87;;;3.10;99.90;;;;;;10255526;28;20208;-80
2020/12/11 06:29:51;;;;;;;61.17;25.63;;;3.20;99.90;;;;;;10256446;28;20581;-78
2020/12/11 06:35:13;;;;;;;62.23;26.17;;;3.10;99.90;;;;;;10287176;28;20218;-76
2020/12/11 06:40:53;;;;;;;67.30;26.40;;;3.20;99.90;;;;;;10285015;28;20246;-76
2020/12/11 06:46:17;;;;;;;71.20;26.93;;;3.20;99.90;;;;;;10263686;28;20210;-76
2020/12/11 06:52:10;;;;;;;63.57;24.10;;;3.20;99.90;;;;;;10265125;28;20210;-77
2020/12/11 06:57:44;;;;;;;69.73;27.27;;;3.20;99.90;;;;;;10292569;28;20698;-75
2020/12/11 07:03:26;;;;;;;63.43;26.00;;;3.20;99.90;;;;;;10293730;28;20302;-76
2020/12/11 07:08:48;;;;;;;67.83;27.20;;;3.10;99.90;;;;;;10297813;28;20190;-76
2020/12/11 07:14:11;;;;;;;71.07;26.47;;;3.20;99.90;;;;;;10296476;28;20221;-76
2020/12/11 07:19:33;;;;;;;74.73;29.17;;;3.20;99.90;;;;;;10274484;28;20223;-75
2020/12/11 07:24:56;;;;;;;59.67;25.50;;;3.10;99.90;;;;;;10254501;29;20688;-76
2020/12/11 07:30:19;;;;;;;62.00;25.33;;;3.20;99.90;;;;;;10264406;28;20226;-77
2020/12/11 07:35:45;;;;;;;62.73;25.33;;;3.20;99.90;;;;;;10252592;28;20188;-75
2020/12/11 07:41:07;;;;;;;58.70;24.03;;;3.30;99.90;;;;;;10291195;28;20606;-77
2020/12/11 07:46:30;;;;;;;56.00;24.00;;;3.30;99.90;;;;;;10298864;28;20199;-76
2020/12/11 07:51:52;;;;;;;60.97;24.87;;;3.30;99.90;;;;;;10300176;28;20220;-76
2020/12/11 07:57:16;;;;;;;62.17;24.73;;;3.20;99.90;;;;;;10272324;28;20629;-76
2020/12/11 08:02:38;;;;;;;56.05;24.73;;;3.30;99.90;;;;;;10268527;28;20451;-76
2020/12/11 08:08:00;;;;;;;55.97;24.00;;;3.20;99.90;;;;;;10296528;28;20641;-80
2020/12/11 08:13:23;;;;;;;57.43;23.70;;;3.50;99.90;;;;;;10303402;28;20214;-80
2020/12/11 08:18:46;;;;;;;51.73;21.50;;;3.40;99.90;;;;;;10325161;28;20213;-80
2020/12/11 08:24:08;;;;;;;56.33;22.30;;;3.40;99.90;;;;;;10306534;28;20225;-80
2020/12/11 08:35:55;;;;;;;57.53;22.30;;;3.40;99.90;;;;;;10168445;28;20204;-79
2020/12/11 08:41:17;;;;;;;59.43;21.53;;;3.50;99.90;;;;;;10298746;28;20325;-79
2020/12/11 08:46:54;;;;;;;57.00;22.40;;;3.30;99.90;;;;;;10292818;28;20198;-77
2020/12/11 08:52:47;;;;;;;54.40;22.70;;;3.50;99.90;;;;;;10291562;28;20295;-79
2020/12/11 08:58:09;;;;;;;46.93;21.40;;;3.50;99.90;;;;;;10293079;28;20227;-78
2020/12/11 09:03:31;;;;;;;47.43;21.43;;;3.60;99.90;;;;;;10250712;29;20216;-78
2020/12/11 09:08:54;;;;;;;54.77;23.17;;;3.60;99.90;;;;;;10276627;28;20948;-78
2020/12/11 09:14:15;;;;;;;48.63;21.90;;;3.70;99.90;;;;;;10291470;28;20206;-79
2020/12/11 09:19:37;;;;;;;47.53;20.17;;;3.70;99.90;;;;;;10275586;28;20301;-81
2020/12/11 09:25:00;;;;;;;48.80;19.87;;;3.80;99.90;;;;;;10249771;29;20204;-78
2020/12/11 09:30:26;;;;;;;46.37;19.70;;;3.80;99.90;;;;;;10256650;28;20223;-79
2020/12/11 09:35:49;;;;;;;48.90;21.27;;;3.80;99.90;;;;;;10289639;28;20195;-81
2020/12/11 09:41:33;;;;;;;43.67;19.20;;;3.90;99.90;;;;;;10293907;28;20575;-83
2020/12/11 09:47:15;;;;;;;37.80;18.90;;;4.00;99.90;;;;;;10288779;28;20247;-80
2020/12/11 09:52:51;;;;;;;44.40;20.60;;;3.80;99.90;;;;;;10268799;28;20306;-80
2020/12/11 09:58:14;;;;;;;45.23;20.17;;;3.90;99.90;;;;;;10287941;28;20223;-80
2020/12/11 10:10:33;;;;;;;43.80;20.03;;;4.00;99.90;;;;;;10257687;28;21038;-79
2020/12/11 10:22:52;;;;;;;39.67;17.70;;;4.20;99.90;;;;;;10032864;29;20234;-81
2020/12/11 10:29:18;;;;;;;;;;;;;;;;;;;;;
2020/12/11 10:53:39;;;;;;;43.20;19.67;;;4.40;99.90;;;;;;10079515;29;20312;-82
2020/12/11 10:59:00;;;;;;;47.27;18.73;;;4.20;99.90;;;;;;10292130;28;20207;-81
2020/12/11 11:04:22;;;;;;;42.63;18.90;;;4.20;99.90;;;;;;10296691;28;20225;-81
2020/12/11 11:09:49;;;;;;;39.27;19.83;;;4.30;99.90;;;;;;10296041;28;20212;-82
2020/12/11 11:15:41;;;;;;;44.30;19.97;;;4.30;99.90;;;;;;10293337;28;20212;-80
2020/12/11 11:27:03;;;;;;;42.47;18.80;;;4.50;99.90;;;;;;10334730;28;20208;-79
2020/12/11 11:32:26;;;;;;;40.40;18.87;;;4.60;99.90;;;;;;10307552;28;20956;-79
2020/12/11 11:37:49;;;;;;;38.40;18.87;;;4.60;99.90;;;;;;10286181;28;20235;-79
2020/12/11 11:43:12;;;;;;;40.13;19.03;;;4.60;99.90;;;;;;10253140;29;20782;-78
2020/12/11 11:48:38;;;;;;;40.03;18.57;;;4.70;99.90;;;;;;10254380;28;20211;-79
2020/12/11 11:54:00;;;;;;;32.77;16.33;;;4.70;99.90;;;;;;10284681;28;20771;-81
2020/12/11 11:59:22;;;;;;;33.80;16.60;;;4.60;99.90;;;;;;10303609;28;20713;-82
2020/12/11 12:04:44;;;;;;;33.43;17.17;;;4.50;99.90;;;;;;10305798;28;20226;-82
2020/12/11 12:10:08;;;;;;;37.33;18.03;;;4.40;99.90;;;;;;10304254;28;20218;-82
2020/12/11 12:15:33;;;;;;;36.03;17.57;;;4.40;99.90;;;;;;10303893;28;20301;-82
2020/12/11 12:20:58;;;;;;;38.83;17.73;;;4.30;99.90;;;;;;10341125;28;20218;-81
2020/12/11 12:32:08;;;;;;;31.73;16.97;;;4.60;99.90;;;;;;10296004;28;20215;-81
2020/12/11 12:37:38;;;;;;;34.67;18.40;;;4.50;99.90;;;;;;10292047;28;20206;-83
2020/12/11 12:43:16;;;;;;;31.80;17.10;;;4.50;99.90;;;;;;10282755;28;20233;-81
2020/12/11 12:48:39;;;;;;;33.47;16.93;;;4.50;99.90;;;;;;10287902;28;20188;-78
2020/12/11 13:04:31;;;;;;;29.97;16.50;;;4.40;99.90;;;;;;11983654;23;20299;-83
2020/12/11 13:09:53;;;;;;;32.67;17.57;;;4.40;99.90;;;;;;10303487;28;20712;-83
2020/12/11 13:15:14;;;;;;;37.23;18.23;;;4.50;99.90;;;;;;10297075;28;20204;-81
2020/12/11 13:20:41;;;;;;;34.93;17.57;;;4.30;99.90;;;;;;10336042;28;20238;-79
2020/12/11 13:26:32;;;;;;;33.00;18.00;;;4.40;99.90;;;;;;10345441;28;20203;-80
2020/12/11 13:31:55;;;;;;;29.83;16.10;;;4.60;99.90;;;;;;10304774;28;20220;-80
2020/12/11 13:37:17;;;;;;;30.80;16.57;;;4.50;99.90;;;;;;10301897;28;20215;-80
2020/12/11 13:42:40;;;;;;;30.47;15.97;;;4.50;99.90;;;;;;10293428;28;20697;-80
2020/12/11 13:48:01;;;;;;;32.03;16.33;;;4.40;99.90;;;;;;10292682;28;20666;-80
2020/12/11 13:53:24;;;;;;;30.03;15.83;;;4.40;99.90;;;;;;10294913;28;20697;-82
2020/12/11 13:58:46;;;;;;;32.67;16.37;;;4.50;99.90;;;;;;10303336;28;20211;-83
2020/12/11 14:04:07;;;;;;;32.00;15.47;;;4.40;99.90;;;;;;10295910;28;20224;-83
2020/12/11 14:09:30;;;;;;;27.57;14.90;;;4.20;99.90;;;;;;10326892;28;20275;-83
2020/12/11 14:14:52;;;;;;;26.50;15.63;;;4.30;99.90;;;;;;10305554;28;20588;-85
2020/12/11 14:25:59;;;;;;;30.60;15.53;;;4.40;99.90;;;;;;10304723;28;20188;-81
2020/12/11 14:31:21;;;;;;;29.23;16.13;;;4.30;99.90;;;;;;10280653;28;20220;-81
2020/12/11 14:36:43;;;;;;;27.30;15.20;;;4.20;99.90;;;;;;10270951;28;20571;-80
2020/12/11 14:42:06;;;;;;;29.73;15.90;;;4.20;99.90;;;;;;10273496;28;20225;-80
2020/12/11 14:47:29;;;;;;;31.33;15.83;;;4.30;99.90;;;;;;10286568;28;20192;-81
2020/12/11 14:52:51;;;;;;;28.03;15.07;;;4.10;99.90;;;;;;10280243;28;20216;-79
2020/12/11 14:58:14;;;;;;;30.30;15.50;;;4.20;99.90;;;;;;10274405;28;20213;-80
2020/12/11 15:03:36;;;;;;;27.80;16.47;;;4.20;99.90;;;;;;10284262;28;20234;-83
2020/12/11 15:08:59;;;;;;;30.53;16.53;;;4.10;99.90;;;;;;10262933;28;20578;-85
2020/12/11 15:14:21;;;;;;;34.27;17.47;;;4.10;99.90;;;;;;10261577;29;20203;-83
2020/12/11 15:19:43;;;;;;;34.63;17.17;;;4.10;99.90;;;;;;10318100;28;20219;-84
2020/12/11 15:25:05;;;;;;;34.57;17.80;;;4.00;99.90;;;;;;10339302;28;20198;-83
2020/12/11 15:30:27;;;;;;;34.07;17.50;;;4.00;99.90;;;;;;10320744;28;20704;-83
2020/12/11 15:35:49;;;;;;;30.10;16.30;;;4.20;99.90;;;;;;10331629;28;20745;-82
2020/12/11 15:41:11;;;;;;;30.77;17.10;;;4.00;99.90;;;;;;10304975;28;20557;-82
2020/12/11 15:46:34;;;;;;;31.43;15.73;;;3.90;99.90;;;;;;10304954;28;20200;-83
2020/12/11 15:51:56;;;;;;;29.90;16.00;;;3.80;99.90;;;;;;10305030;28;20214;-83
2020/12/11 15:57:17;;;;;;;33.03;18.10;;;3.90;99.90;;;;;;10302911;28;20200;-84
2020/12/11 16:02:40;;;;;;;31.90;17.47;;;3.80;99.90;;;;;;10288627;28;20220;-81
2020/12/11 16:08:02;;;;;;;30.93;17.13;;;3.80;99.90;;;;;;10298860;28;20707;-82
2020/12/11 16:13:23;;;;;;;32.60;18.23;;;3.90;99.90;;;;;;10302696;28;20215;-82
2020/12/11 16:18:46;;;;;;;36.57;18.03;;;3.80;99.90;;;;;;10300565;28;20226;-82
2020/12/11 16:24:08;;;;;;;31.93;17.50;;;3.80;99.90;;;;;;10330132;28;20221;-82
2020/12/11 16:29:29;;;;;;;33.73;18.50;;;3.70;99.90;;;;;;10301547;28;20262;-81
2020/12/11 16:34:52;;;;;;;35.57;18.47;;;3.80;99.90;;;;;;10264177;28;20207;-81
2020/12/11 16:40:13;;;;;;;30.77;17.13;;;3.70;99.90;;;;;;10261253;29;20231;-83
2020/12/11 16:45:37;;;;;;;31.63;17.93;;;3.80;99.90;;;;;;10261365;28;20227;-83
2020/12/11 16:50:59;;;;;;;30.73;17.13;;;3.80;99.90;;;;;;10282671;28;20215;-82
2020/12/11 16:56:21;;;;;;;28.30;16.27;;;3.80;99.90;;;;;;10299740;28;20196;-82
2020/12/11 17:01:45;;;;;;;30.93;17.97;;;3.80;99.90;;;;;;10301015;28;20231;-81
2020/12/11 17:07:09;;;;;;;29.77;17.20;;;3.70;99.90;;;;;;10277133;28;20217;-83
2020/12/11 17:12:31;;;;;;;30.97;17.80;;;3.70;99.90;;;;;;10304471;28;20724;-82
2020/12/11 17:17:52;;;;;;;31.90;17.47;;;3.50;99.90;;;;;;10308266;28;20216;-80
2020/12/11 17:23:15;;;;;;;32.50;18.10;;;3.60;99.90;;;;;;10334687;28;20219;-80
2020/12/11 17:28:37;;;;;;;33.80;18.40;;;3.70;99.90;;;;;;10296831;28;20210;-79
2020/12/11 17:34:05;;;;;;;28.87;16.73;;;3.80;99.90;;;;;;10291019;28;20229;-82
2020/12/11 17:39:27;;;;;;;30.87;16.83;;;3.60;99.90;;;;;;10290387;28;20259;-80
2020/12/11 17:44:49;;;;;;;30.60;16.57;;;3.60;99.90;;;;;;10282106;28;20801;-79
2020/12/11 19:28:36;;;;;;;31.63;15.93;;;3.70;99.90;;;;;;11327629;23;20730;-80
2020/12/11 19:33:58;;;;;;;24.90;15.33;;;3.60;99.90;;;;;;10363257;28;20256;-80
2020/12/11 19:39:20;;;;;;;25.87;14.47;;;3.50;99.90;;;;;;10338061;28;20337;-80
2020/12/11 19:44:43;;;;;;;26.53;15.33;;;3.50;99.90;;;;;;10337539;28;20279;-80
2020/12/11 19:50:04;;;;;;;27.40;14.97;;;3.60;99.90;;;;;;10337031;28;20222;-80
2020/12/11 19:55:26;;;;;;;28.60;16.40;;;3.80;99.90;;;;;;10343300;28;20197;-80
2020/12/11 20:00:49;;;;;;;35.37;16.53;;;3.80;99.90;;;;;;10313263;28;20286;-82
2020/12/11 20:06:14;;;;;;;28.27;16.33;;;3.70;99.90;;;;;;10342628;28;20198;-82
2020/12/11 20:11:42;;;;;;;32.60;21.07;;;3.80;99.90;;;;;;10350266;28;20914;-81
2020/12/11 20:17:05;;;;;;;29.07;16.23;;;3.60;99.90;;;;;;10332097;28;20191;-81
2020/12/11 20:22:27;;;;;;;33.17;16.60;;;3.50;99.90;;;;;;10339711;28;20245;-80
2020/12/11 20:27:49;;;;;;;31.40;15.90;;;3.30;99.90;;;;;;10338724;28;20298;-79
2020/12/11 20:33:11;;;;;;;27.40;14.97;;;3.30;99.90;;;;;;10337470;28;20296;-80
2020/12/11 20:38:33;;;;;;;27.67;16.70;;;3.30;99.90;;;;;;10331955;28;20278;-80
2020/12/11 20:43:55;;;;;;;29.43;15.53;;;3.20;99.90;;;;;;10318333;28;20232;-79
2020/12/11 20:49:18;;;;;;;31.87;16.07;;;3.10;99.90;;;;;;10332385;28;20257;-81
2020/12/11 20:54:39;;;;;;;27.13;16.00;;;3.20;99.90;;;;;;10333142;28;20237;-78
2020/12/11 21:00:01;;;;;;;30.47;17.00;;;3.20;99.90;;;;;;10319657;28;20310;-79
2020/12/11 21:05:24;;;;;;;35.60;18.13;;;3.20;99.90;;;;;;10315026;28;20206;-79
2020/12/11 21:10:46;;;;;;;36.53;18.20;;;3.10;99.90;;;;;;10307665;28;20354;-81
2020/12/11 21:16:08;;;;;;;35.27;18.93;;;3.20;99.90;;;;;;10318044;28;20202;-81
2020/12/11 21:21:31;;;;;;;34.27;19.50;;;3.30;99.90;;;;;;10333673;28;20225;-81
2020/12/11 21:26:53;;;;;;;36.43;19.80;;;3.30;99.90;;;;;;10308397;28;20239;-81
2020/12/11 21:32:20;;;;;;;34.47;20.13;;;3.50;99.90;;;;;;10287010;28;20377;-82
2020/12/11 21:37:43;;;;;;;37.50;20.53;;;3.50;99.90;;;;;;10274147;28;20827;-79
2020/12/11 21:43:05;;;;;;;37.70;19.70;;;3.50;99.90;;;;;;10282633;28;20619;-79
2020/12/11 21:48:27;;;;;;;35.37;19.23;;;3.50;99.90;;;;;;10264223;28;20192;-80
2020/12/11 21:53:49;;;;;;;39.40;21.00;;;3.60;99.90;;;;;;10287478;28;20282;-79
2020/12/11 21:59:11;;;;;;;36.87;20.20;;;3.70;99.90;;;;;;10294356;28;20217;-81
2020/12/11 22:04:33;;;;;;;35.97;19.93;;;3.80;99.90;;;;;;10274954;28;20199;-79
2020/12/11 22:09:55;;;;;;;43.07;22.17;;;3.80;99.90;;;;;;10290983;28;20219;-80
2020/12/11 22:15:17;;;;;;;40.93;21.80;;;3.90;99.90;;;;;;10293990;28;20211;-80
2020/12/11 22:20:39;;;;;;;39.17;22.20;;;4.00;99.90;;;;;;10300478;28;20219;-81
2020/12/11 22:26:01;;;;;;;38.83;22.03;;;4.00;99.90;;;;;;10303174;28;20191;-81
2020/12/11 22:31:23;;;;;;;43.20;22.00;;;4.20;99.90;;;;;;10342774;28;20207;-81
2020/12/11 22:36:45;;;;;;;44.90;23.03;;;4.10;99.90;;;;;;10342372;28;20230;-81
2020/12/11 22:42:08;;;;;;;47.63;23.60;;;4.20;99.90;;;;;;10338867;28;20934;-81
2020/12/11 22:47:29;;;;;;;44.20;23.67;;;4.30;99.90;;;;;;10340907;28;20209;-81
2020/12/11 22:52:52;;;;;;;44.73;23.37;;;4.40;99.90;;;;;;10339954;28;20207;-81
2020/12/11 22:58:14;;;;;;;43.03;23.47;;;4.40;99.90;;;;;;10339530;28;20188;-81
2020/12/11 23:03:36;;;;;;;45.47;24.30;;;4.60;99.90;;;;;;10338492;28;20223;-82
2020/12/11 23:08:57;;;;;;;46.70;23.47;;;4.40;99.90;;;;;;10338924;28;20714;-82
2020/12/11 23:14:20;;;;;;;44.83;22.93;;;4.40;99.90;;;;;;10338233;28;20191;-81
2020/12/11 23:19:42;;;;;;;44.23;23.00;;;4.40;99.90;;;;;;10366509;28;20222;-82
2020/12/11 23:25:04;;;;;;;41.30;22.07;;;4.40;99.90;;;;;;10384372;28;20190;-80
2020/12/11 23:30:26;;;;;;;42.43;22.73;;;4.20;99.90;;;;;;10377992;28;20218;-81
2020/12/11 23:35:48;;;;;;;43.97;22.60;;;4.40;99.90;;;;;;10378425;28;20680;-81
2020/12/11 23:41:10;;;;;;;47.30;23.90;;;4.40;99.90;;;;;;10346934;28;20229;-81
2020/12/11 23:46:33;;;;;;;47.33;24.00;;;4.50;99.90;;;;;;10336826;28;20230;-82
2020/12/11 23:51:54;;;;;;;44.97;22.60;;;4.50;99.90;;;;;;10337725;28;20236;-81
2020/12/11 23:57:16;;;;;;;46.77;23.03;;;4.60;99.90;;;;;;10340570;28;20213;-81
